Time;durP1;ratioP1;P1;durP2;ratioP2;P2;SDS_P1;SDS_P2;PMS_P1;PMS_P2;Temp;Humidity;BMP_temperature;BMP_pressure;BME280_temperature;BME280_humidity;BME280_pressure;Samples;Min_cycle;Max_cycle;Signal;HPM_P1;HPM_P2
2022/01/21 00:00:13;;;;;;;10.57;1.65;;;-2.60;99.90;;;;;;2585543;54;20044;31
2022/01/21 00:02:48;;;;;;;6.70;1.50;;;-2.60;99.90;;;;;;2585499;54;19961;31
2022/01/21 00:05:24;;;;;;;5.30;1.42;;;-2.60;99.90;;;;;;2604040;46;20030;31
2022/01/21 00:08:02;;;;;;;11.45;1.20;;;-2.70;99.90;;;;;;2585380;54;20354;31
2022/01/21 00:10:39;;;;;;;4.35;0.95;;;-2.70;99.90;;;;;;2585472;54;20905;31
2022/01/21 00:13:21;;;;;;;6.30;1.40;;;-2.70;99.90;;;;;;2585697;54;20935;31
2022/01/21 00:15:56;;;;;;;8.63;1.97;;;-2.70;99.90;;;;;;2585321;54;21001;31
2022/01/21 00:18:31;;;;;;;13.73;1.57;;;-2.70;99.90;;;;;;2585551;54;21135;31
2022/01/21 00:32:15;;;;;;;6.00;0.83;;;-2.80;99.90;;;;;;2585253;54;20813;31
2022/01/21 00:34:48;;;;;;;2.03;0.60;;;-2.80;99.90;;;;;;2585645;54;20023;31
2022/01/21 00:40:01;;;;;;;4.80;1.10;;;-2.90;99.90;;;;;;2585314;54;20026;31
2022/01/21 00:45:20;;;;;;;6.90;1.00;;;-2.90;99.90;;;;;;2585254;54;20037;31
2022/01/21 00:47:57;;;;;;;7.35;1.02;;;-2.90;99.90;;;;;;2585430;54;20101;31
2022/01/21 00:50:30;;;;;;;3.10;0.75;;;-2.90;99.90;;;;;;2585530;54;19946;31
2022/01/21 00:53:08;;;;;;;5.63;0.60;;;-2.90;99.90;;;;;;2585155;54;20034;31
2022/01/21 00:55:45;;;;;;;4.03;1.10;;;-2.90;99.90;;;;;;2585175;54;21182;31
2022/01/21 00:58:29;;;;;;;2.50;0.70;;;-2.90;99.90;;;;;;2603443;46;21725;31
2022/01/21 01:01:18;;;;;;;2.85;1.00;;;-2.90;99.90;;;;;;2585409;54;20026;31
2022/01/21 01:06:49;;;;;;;5.20;0.70;;;-2.90;99.90;;;;;;2584466;54;20939;31
2022/01/21 01:09:23;;;;;;;5.30;0.90;;;-3.00;99.90;;;;;;2603742;46;20894;31
2022/01/21 01:30:19;;;;;;;4.55;1.25;;;-3.10;99.90;;;;;;2602566;54;20026;31
2022/01/21 07:10:11;;;;;;;3.30;1.25;;;-2.10;99.90;;;;;;2604207;46;20848;31
2022/01/21 07:12:48;;;;;;;6.45;1.00;;;-2.10;99.90;;;;;;2604462;46;20063;31
2022/01/21 07:21:35;;;;;;;5.90;0.98;;;-2.20;99.90;;;;;;2585853;54;21664;31
2022/01/21 07:24:18;;;;;;;8.60;1.10;;;-2.20;99.90;;;;;;2585828;54;20881;31
2022/01/21 07:35:46;;;;;;;8.40;1.00;;;-2.10;99.90;;;;;;2585457;54;20826;31
2022/01/21 07:38:47;;;;;;;6.30;1.05;;;-1.80;99.90;;;;;;2585120;54;20069;31
2022/01/21 07:41:25;;;;;;;5.50;1.10;;;-1.30;99.90;;;;;;2585518;54;20027;31
2022/01/21 07:44:06;;;;;;;7.00;1.17;;;-0.90;99.90;;;;;;2585713;54;20026;31
2022/01/21 07:46:39;;;;;;;3.63;0.90;;;-0.50;99.90;;;;;;2585863;54;21670;31
2022/01/21 07:49:12;;;;;;;6.35;1.63;;;-0.20;99.90;;;;;;2585452;54;20231;31
2022/01/21 07:51:51;;;;;;;7.30;1.50;;;0.40;99.90;;;;;;2585014;54;22359;31
2022/01/21 07:54:26;;;;;;;9.85;1.70;;;0.70;99.90;;;;;;2643512;39;22155;31
2022/01/21 07:57:02;;;;;;;8.75;1.60;;;0.70;99.90;;;;;;2584570;54;20892;31
2022/01/21 07:59:41;;;;;;;8.05;2.05;;;0.80;99.90;;;;;;2585055;54;20892;31
2022/01/21 08:02:25;;;;;;;6.60;1.25;;;0.90;99.90;;;;;;2585439;54;21187;31
2022/01/21 08:05:03;;;;;;;4.72;0.93;;;1.00;99.90;;;;;;2584669;54;20873;31
2022/01/21 08:07:36;;;;;;;4.78;1.15;;;1.20;99.90;;;;;;2584419;54;20922;31
2022/01/21 08:12:45;;;;;;;5.90;1.00;;;1.70;99.90;;;;;;2585529;54;21043;31
2022/01/21 08:15:29;;;;;;;7.57;1.70;;;1.80;99.90;;;;;;2584342;54;20821;31
2022/01/21 08:20:52;;;;;;;5.37;1.33;;;1.40;99.90;;;;;;2584527;54;20038;31
2022/01/21 08:23:26;;;;;;;12.80;1.77;;;1.40;99.90;;;;;;2585291;54;20847;31
2022/01/21 08:29:06;;;;;;;4.57;0.90;;;1.30;99.90;;;;;;2585129;54;20863;31
2022/01/21 08:43:48;;;;;;;4.95;0.70;;;-0.20;99.90;;;;;;2604312;54;20019;31
2022/01/21 08:49:34;;;;;;;4.10;1.30;;;0.00;99.90;;;;;;2604260;54;20011;31
2022/01/21 08:52:18;;;;;;;6.05;1.30;;;-0.10;99.90;;;;;;2585540;54;20038;31
2022/01/21 08:54:55;;;;;;;4.70;1.30;;;-0.10;99.90;;;;;;2585362;54;20026;31
2022/01/21 08:57:32;;;;;;;6.67;1.77;;;-0.20;99.90;;;;;;2585426;54;20045;31
2022/01/21 09:00:16;;;;;;;5.67;0.93;;;-0.30;99.90;;;;;;2585416;54;20915;31
2022/01/21 09:02:53;;;;;;;5.65;0.80;;;-0.20;99.90;;;;;;2585505;54;20023;31
2022/01/21 09:05:30;;;;;;;5.35;0.98;;;-0.20;99.90;;;;;;2585314;54;20031;31
2022/01/21 09:08:08;;;;;;;4.60;1.08;;;0.00;99.90;;;;;;2585156;54;20877;31
2022/01/21 09:10:47;;;;;;;6.22;2.83;;;0.20;99.90;;;;;;2585409;54;20978;31
2022/01/21 09:13:22;;;;;;;7.50;0.95;;;0.30;99.90;;;;;;2585297;54;20133;31
2022/01/21 09:16:04;;;;;;;6.03;1.00;;;0.30;99.90;;;;;;2603653;46;20022;31
2022/01/21 09:18:51;;;;;;;9.20;1.70;;;0.50;99.90;;;;;;2585078;54;20034;31
2022/01/21 09:21:45;;;;;;;5.00;1.10;;;0.70;99.90;;;;;;2585372;54;20894;31
2022/01/21 09:24:20;;;;;;;7.20;1.23;;;0.80;99.90;;;;;;2584942;54;20081;31
2022/01/21 09:27:00;;;;;;;9.52;1.70;;;1.00;99.90;;;;;;2585315;54;22451;31
2022/01/21 09:29:41;;;;;;;3.10;1.10;;;1.20;99.90;;;;;;2585300;54;20026;31
2022/01/21 09:32:19;;;;;;;5.25;1.20;;;1.20;99.90;;;;;;2604092;46;22257;31
2022/01/21 09:34:53;;;;;;;8.07;1.60;;;1.50;99.90;;;;;;2604037;46;20026;31
2022/01/21 09:37:28;;;;;;;5.15;0.90;;;1.60;99.90;;;;;;2603520;46;20029;31
2022/01/21 09:40:06;;;;;;;5.23;1.43;;;1.70;99.90;;;;;;2585235;54;20026;31
2022/01/21 09:42:47;;;;;;;7.95;1.67;;;2.00;99.90;;;;;;2584765;54;20238;31
2022/01/21 09:45:25;;;;;;;6.15;1.17;;;1.90;99.90;;;;;;2585100;54;20023;31
2022/01/21 09:48:06;;;;;;;8.30;1.48;;;1.90;99.90;;;;;;2584812;54;20101;31
2022/01/21 09:50:54;;;;;;;5.05;1.15;;;1.80;99.90;;;;;;2603998;46;22512;31
2022/01/21 09:53:31;;;;;;;10.97;1.23;;;1.70;99.90;;;;;;2603273;46;19961;31
2022/01/21 09:56:07;;;;;;;8.85;1.60;;;1.60;99.90;;;;;;2585180;54;20231;31
2022/01/21 09:58:42;;;;;;;7.18;1.20;;;1.60;99.90;;;;;;2585121;54;20906;31
2022/01/21 10:01:19;;;;;;;6.30;1.10;;;1.80;99.90;;;;;;2585242;54;20787;31
2022/01/21 10:03:56;;;;;;;7.22;1.45;;;2.00;99.90;;;;;;2585285;54;20057;31
2022/01/21 10:06:35;;;;;;;6.20;1.10;;;2.00;99.90;;;;;;2584979;54;20798;31
2022/01/21 10:09:25;;;;;;;5.05;1.80;;;1.80;99.90;;;;;;2585251;54;20022;31
2022/01/21 10:12:02;;;;;;;4.80;1.20;;;1.70;99.90;;;;;;2585227;54;20946;31
2022/01/21 10:14:37;;;;;;;4.70;1.17;;;1.50;99.90;;;;;;2584290;54;20030;31
2022/01/21 10:17:17;;;;;;;4.05;1.05;;;1.30;99.90;;;;;;2585215;54;20889;31
2022/01/21 10:19:57;;;;;;;7.15;1.60;;;1.10;99.90;;;;;;2584848;54;20030;31
2022/01/21 10:22:33;;;;;;;5.55;1.20;;;1.00;99.90;;;;;;2585099;54;20933;31
2022/01/21 10:25:12;;;;;;;8.60;1.58;;;0.90;99.90;;;;;;2603178;47;21026;31
2022/01/21 10:27:48;;;;;;;4.18;1.23;;;0.70;99.90;;;;;;2585192;54;20108;31
2022/01/21 10:30:22;;;;;;;2.25;0.35;;;0.70;99.90;;;;;;2603121;47;20976;31
2022/01/21 10:33:00;;;;;;;7.90;1.10;;;0.50;99.90;;;;;;2585332;54;22132;31
2022/01/21 10:35:46;;;;;;;7.50;1.20;;;0.30;99.90;;;;;;2584908;54;20983;31
2022/01/21 10:40:49;;;;;;;5.60;1.10;;;0.40;99.90;;;;;;2585163;54;20031;31
2022/01/21 10:43:32;;;;;;;8.00;1.20;;;0.50;99.90;;;;;;2584958;54;20899;31
2022/01/21 10:46:32;;;;;;;7.80;1.67;;;0.40;99.90;;;;;;2585075;54;20058;31
2022/01/21 10:49:07;;;;;;;7.55;1.25;;;0.40;99.90;;;;;;2584777;54;21200;31
2022/01/21 10:51:53;;;;;;;5.40;1.40;;;0.50;99.90;;;;;;2603262;47;21145;31
2022/01/21 10:54:30;;;;;;;6.40;1.25;;;0.40;99.90;;;;;;2585688;54;20022;31
2022/01/21 10:57:08;;;;;;;4.97;0.98;;;0.50;99.90;;;;;;2585646;54;20064;31
2022/01/21 10:59:58;;;;;;;5.78;1.10;;;0.50;99.90;;;;;;2585683;54;20090;31
2022/01/21 11:02:40;;;;;;;16.20;1.20;;;0.60;99.90;;;;;;2585562;54;20107;31
2022/01/21 11:05:30;;;;;;;2.63;0.70;;;1.00;99.90;;;;;;2604081;46;20044;31
2022/01/21 11:08:12;;;;;;;6.15;1.30;;;1.10;99.90;;;;;;2585921;54;20030;31
2022/01/21 11:10:52;;;;;;;5.93;1.50;;;1.10;99.90;;;;;;2585552;54;20895;31
2022/01/21 11:13:33;;;;;;;6.25;1.30;;;1.00;99.90;;;;;;2585901;54;20033;31
2022/01/21 11:16:11;;;;;;;6.82;1.35;;;0.90;99.90;;;;;;2585775;54;20102;31
2022/01/21 11:19:09;;;;;;;5.17;1.00;;;0.80;99.90;;;;;;2591796;46;20795;31
2022/01/21 11:21:51;;;;;;;5.55;1.40;;;0.70;99.90;;;;;;2586056;54;20117;31
2022/01/21 11:24:28;;;;;;;7.78;1.40;;;0.70;99.90;;;;;;2585661;54;20045;31
2022/01/21 11:27:14;;;;;;;6.60;1.10;;;0.70;99.90;;;;;;2585201;54;20869;31
2022/01/21 11:29:49;;;;;;;5.13;1.20;;;0.70;99.90;;;;;;2585598;54;20110;31
2022/01/21 11:32:24;;;;;;;5.67;1.73;;;0.70;99.90;;;;;;2585606;54;20241;31
2022/01/21 11:35:00;;;;;;;5.55;1.10;;;0.70;99.90;;;;;;2585768;54;20848;31
2022/01/21 11:37:38;;;;;;;3.97;1.20;;;0.60;99.90;;;;;;2585600;54;20038;31
2022/01/21 11:40:16;;;;;;;8.30;1.60;;;0.50;99.90;;;;;;2585460;54;21179;31
2022/01/21 11:42:51;;;;;;;2.67;0.73;;;0.40;99.90;;;;;;2584576;54;21078;31
2022/01/21 11:46:05;;;;;;;5.15;1.10;;;0.30;99.90;;;;;;2682054;39;21014;31
2022/01/21 11:48:54;;;;;;;2.85;0.90;;;0.30;99.90;;;;;;2585971;54;20030;31
2022/01/21 11:51:30;;;;;;;9.13;1.20;;;0.40;99.90;;;;;;2586042;54;21122;31
2022/01/21 11:54:08;;;;;;;6.50;1.25;;;0.50;99.90;;;;;;2585725;54;20029;31
2022/01/21 11:56:48;;;;;;;8.50;1.27;;;0.50;99.90;;;;;;2603758;46;20037;31
2022/01/21 11:59:40;;;;;;;8.27;1.85;;;0.50;99.90;;;;;;2702035;39;22374;31
2022/01/21 12:04:48;;;;;;;6.82;1.42;;;0.70;99.90;;;;;;2603754;46;21011;31
2022/01/21 12:07:51;;;;;;;6.45;1.00;;;0.70;99.90;;;;;;2585952;54;20894;31
2022/01/21 12:10:49;;;;;;;10.15;2.15;;;0.70;99.90;;;;;;2585558;54;21006;31
2022/01/21 12:13:34;;;;;;;3.90;1.60;;;0.60;99.90;;;;;;2585513;54;20030;31
2022/01/21 12:21:33;;;;;;;5.93;1.98;;;0.60;99.90;;;;;;2683261;39;21018;31
2022/01/21 12:24:16;;;;;;;7.30;1.20;;;0.70;99.90;;;;;;2584447;54;20815;31
2022/01/21 12:27:01;;;;;;;7.40;1.20;;;0.70;99.90;;;;;;2584685;54;20027;31
2022/01/21 12:29:39;;;;;;;7.63;1.17;;;0.60;99.90;;;;;;2585609;54;20030;31
2022/01/21 12:35:25;;;;;;;10.07;1.65;;;0.60;99.90;;;;;;2585683;54;21314;31
2022/01/21 12:41:22;;;;;;;9.90;1.90;;;0.40;99.90;;;;;;2683614;39;21026;31
2022/01/21 12:44:03;;;;;;;7.97;1.47;;;0.30;99.90;;;;;;2603514;46;20023;31
2022/01/21 12:46:44;;;;;;;6.70;1.60;;;0.30;99.90;;;;;;2584973;54;20892;31
2022/01/21 12:49:50;;;;;;;5.95;1.17;;;0.30;99.90;;;;;;2585305;54;20122;31
2022/01/21 12:58:21;;;;;;;8.40;1.40;;;0.40;99.90;;;;;;2585570;54;20901;31
2022/01/21 13:01:00;;;;;;;5.80;1.10;;;0.60;99.90;;;;;;2683510;39;21054;31
2022/01/21 13:03:38;;;;;;;7.15;2.10;;;0.70;99.90;;;;;;2584423;54;20928;31
2022/01/21 13:06:17;;;;;;;8.18;1.40;;;0.70;99.90;;;;;;2585220;54;20933;31
2022/01/21 13:09:05;;;;;;;3.53;1.02;;;0.80;99.90;;;;;;2585089;54;20026;31
2022/01/21 13:11:43;;;;;;;6.18;1.75;;;0.80;99.90;;;;;;2585385;54;20096;31
2022/01/21 13:14:34;;;;;;;10.95;1.90;;;0.80;99.90;;;;;;2585277;54;20792;31
2022/01/21 13:17:10;;;;;;;7.82;1.90;;;0.90;99.90;;;;;;2584915;54;20027;31
2022/01/21 13:19:49;;;;;;;6.17;1.60;;;0.90;99.90;;;;;;2585044;54;21386;31
2022/01/21 13:22:31;;;;;;;9.70;1.48;;;1.00;99.90;;;;;;2584789;54;20242;31
2022/01/21 13:25:05;;;;;;;3.80;1.00;;;1.00;99.90;;;;;;2602938;46;20161;31
2022/01/21 13:27:45;;;;;;;13.60;1.33;;;1.10;99.90;;;;;;2584459;54;20814;31
2022/01/21 13:30:24;;;;;;;5.85;0.70;;;1.10;99.90;;;;;;2584984;54;20027;31
2022/01/21 13:32:56;;;;;;;7.97;1.35;;;1.10;99.90;;;;;;2585282;54;20906;31
2022/01/21 13:35:34;;;;;;;7.50;1.30;;;1.10;99.90;;;;;;2585117;54;20073;31
2022/01/21 13:38:12;;;;;;;7.63;1.50;;;1.10;99.90;;;;;;2585207;54;20045;31
2022/01/21 13:40:58;;;;;;;5.40;1.40;;;1.00;99.90;;;;;;2753994;31;21219;31
2022/01/21 13:43:31;;;;;;;5.20;1.40;;;1.00;99.90;;;;;;2585192;54;20878;31
2022/01/21 13:46:08;;;;;;;7.35;1.30;;;1.00;99.90;;;;;;2585424;54;20027;31
2022/01/21 13:48:43;;;;;;;7.70;1.77;;;1.00;99.90;;;;;;2585423;54;20026;31
2022/01/21 13:51:20;;;;;;;7.70;1.73;;;1.00;99.90;;;;;;2585396;54;20082;31
2022/01/21 13:54:10;;;;;;;6.90;1.57;;;1.00;99.90;;;;;;2585435;54;22379;31
2022/01/21 13:56:50;;;;;;;4.05;1.10;;;1.00;99.90;;;;;;2585094;54;20032;31
2022/01/21 13:59:33;;;;;;;9.50;1.50;;;1.10;99.90;;;;;;2584264;54;20054;31
2022/01/21 14:02:08;;;;;;;5.50;1.40;;;1.10;99.90;;;;;;2585112;54;20022;31
2022/01/21 14:04:58;;;;;;;6.50;1.57;;;1.10;99.90;;;;;;2584171;54;20917;31
2022/01/21 14:07:35;;;;;;;12.65;1.50;;;1.20;99.90;;;;;;2585387;54;21094;31
2022/01/21 14:12:39;;;;;;;5.30;1.35;;;1.10;99.90;;;;;;2585261;54;21009;31
2022/01/21 14:15:17;;;;;;;7.15;1.10;;;1.10;99.90;;;;;;2585109;54;20022;31
2022/01/21 14:17:52;;;;;;;9.63;1.23;;;1.10;99.90;;;;;;2584952;54;20051;31
2022/01/21 14:20:31;;;;;;;8.93;1.27;;;1.00;99.90;;;;;;2585046;54;20940;31
2022/01/21 14:23:09;;;;;;;6.25;1.10;;;1.00;99.90;;;;;;2585017;54;20019;31
2022/01/21 14:25:53;;;;;;;4.90;1.17;;;0.90;99.90;;;;;;2585076;54;20049;31
2022/01/21 14:28:40;;;;;;;8.82;2.08;;;0.90;99.90;;;;;;2585453;54;20115;31
2022/01/21 14:31:29;;;;;;;7.93;1.33;;;0.80;99.90;;;;;;2585705;54;20108;31
2022/01/21 14:34:03;;;;;;;4.40;1.10;;;0.80;99.90;;;;;;2585986;54;20018;31
2022/01/21 14:36:38;;;;;;;11.35;1.45;;;0.70;99.90;;;;;;2604242;46;20029;31
2022/01/21 14:39:16;;;;;;;8.63;1.60;;;0.70;99.90;;;;;;2702414;39;21037;31
2022/01/21 14:41:53;;;;;;;6.53;2.37;;;0.50;99.90;;;;;;2591149;46;20998;31
2022/01/21 14:44:42;;;;;;;10.02;1.60;;;0.50;99.90;;;;;;2585784;54;20032;31
2022/01/21 14:47:15;;;;;;;10.83;1.47;;;0.40;99.90;;;;;;2585359;54;21152;31
2022/01/21 14:49:48;;;;;;;7.55;2.30;;;0.40;99.90;;;;;;2702323;39;22439;31
2022/01/21 14:52:39;;;;;;;5.60;1.45;;;0.30;99.90;;;;;;2604208;46;21113;31
2022/01/21 14:55:21;;;;;;;7.25;1.40;;;0.30;99.90;;;;;;2585890;54;20042;31
2022/01/21 14:57:58;;;;;;;5.40;1.20;;;0.50;99.90;;;;;;2585645;54;20056;31
2022/01/21 15:00:34;;;;;;;6.73;1.50;;;0.40;99.90;;;;;;2585916;54;20918;31
2022/01/21 15:03:12;;;;;;;7.18;1.38;;;0.40;99.90;;;;;;2585404;54;20038;31
2022/01/21 15:05:51;;;;;;;13.10;2.65;;;0.40;99.90;;;;;;2585708;54;20042;31
2022/01/21 15:08:36;;;;;;;15.57;4.97;;;0.40;99.90;;;;;;2603815;46;21034;31
2022/01/21 15:11:43;;;;;;;9.07;3.50;;;0.30;99.90;;;;;;2585620;54;20238;31
2022/01/21 15:14:33;;;;;;;10.38;2.83;;;0.30;99.90;;;;;;2683846;39;22399;31
2022/01/21 15:17:13;;;;;;;10.35;2.95;;;0.30;99.90;;;;;;2604033;46;20031;31
2022/01/21 15:19:49;;;;;;;9.10;2.65;;;0.20;99.90;;;;;;2585827;54;20903;31
2022/01/21 15:22:27;;;;;;;9.57;2.70;;;0.20;99.90;;;;;;2585676;54;20921;31
2022/01/21 15:25:02;;;;;;;7.65;2.20;;;0.20;99.90;;;;;;2596729;46;20082;31
2022/01/21 15:27:39;;;;;;;11.52;2.60;;;0.20;99.90;;;;;;2585658;54;20043;31
2022/01/21 15:30:17;;;;;;;7.80;2.75;;;0.40;99.90;;;;;;2585694;54;20069;31
2022/01/21 15:32:50;;;;;;;4.07;1.50;;;0.40;99.90;;;;;;2585690;54;20049;31
2022/01/21 15:35:25;;;;;;;7.53;1.60;;;0.50;99.90;;;;;;2603167;46;20804;31
2022/01/21 15:38:06;;;;;;;5.70;1.20;;;0.70;99.90;;;;;;2585668;54;20027;31
2022/01/21 15:40:41;;;;;;;7.07;1.58;;;0.70;99.90;;;;;;2585377;54;20868;31
2022/01/21 15:43:13;;;;;;;5.80;1.27;;;0.60;99.90;;;;;;2683117;39;21732;31
2022/01/21 15:45:53;;;;;;;5.30;1.20;;;0.60;99.90;;;;;;2585689;54;20945;31
2022/01/21 15:48:30;;;;;;;5.30;1.80;;;0.50;99.90;;;;;;2585675;54;21149;31
2022/01/21 15:51:10;;;;;;;8.57;1.77;;;0.50;99.90;;;;;;2585514;54;20081;31
2022/01/21 15:53:43;;;;;;;8.13;2.00;;;0.40;99.90;;;;;;2585417;54;20034;31
2022/01/21 15:56:21;;;;;;;9.43;1.67;;;0.30;99.90;;;;;;2585597;54;20080;31
2022/01/21 15:59:20;;;;;;;15.60;2.10;;;0.30;99.90;;;;;;2585757;54;20031;31
2022/01/21 16:01:59;;;;;;;11.35;2.40;;;0.20;99.90;;;;;;2585684;54;20290;31
2022/01/21 16:04:39;;;;;;;13.27;3.35;;;0.20;99.90;;;;;;2585262;54;20108;31
2022/01/21 16:07:12;;;;;;;9.05;2.55;;;0.20;99.90;;;;;;2585984;54;22496;31
2022/01/21 16:09:47;;;;;;;8.87;2.60;;;0.20;99.90;;;;;;2604251;46;21039;31
2022/01/21 16:12:27;;;;;;;7.60;2.50;;;0.10;99.90;;;;;;2584685;54;20022;31
2022/01/21 16:15:02;;;;;;;9.60;3.03;;;0.00;99.90;;;;;;2600843;46;20089;31
2022/01/21 16:17:41;;;;;;;15.05;2.70;;;0.00;99.90;;;;;;2585534;54;20029;31
2022/01/21 16:20:15;;;;;;;8.30;2.43;;;-0.10;99.90;;;;;;2585428;54;20149;31
2022/01/21 16:22:50;;;;;;;7.70;2.17;;;-0.10;99.90;;;;;;2603707;46;20992;31
2022/01/21 16:25:23;;;;;;;7.15;1.83;;;-0.10;99.90;;;;;;2584984;54;20039;31
2022/01/21 16:28:01;;;;;;;9.70;1.90;;;-0.20;99.90;;;;;;2585428;54;20995;31
2022/01/21 16:30:34;;;;;;;8.38;1.88;;;-0.20;99.90;;;;;;2603967;46;20022;31
2022/01/21 16:33:12;;;;;;;11.80;2.35;;;-0.20;99.90;;;;;;2585604;54;20934;31
2022/01/21 16:35:50;;;;;;;11.45;2.70;;;-0.20;99.90;;;;;;2585092;54;20027;31
2022/01/21 16:40:55;;;;;;;6.60;2.00;;;-0.30;99.90;;;;;;2585236;54;20861;31
2022/01/21 16:43:36;;;;;;;8.20;2.00;;;-0.30;99.90;;;;;;2585332;54;20050;31
2022/01/21 16:46:13;;;;;;;8.47;2.40;;;-0.40;99.90;;;;;;2585495;54;20934;31
2022/01/21 16:48:52;;;;;;;11.75;2.90;;;-0.30;99.90;;;;;;2585419;54;20996;31
2022/01/21 16:51:29;;;;;;;9.30;2.20;;;-0.40;99.90;;;;;;2603405;46;20911;31
2022/01/21 16:54:04;;;;;;;9.23;2.42;;;-0.40;99.90;;;;;;2584941;54;20155;31
2022/01/21 16:56:45;;;;;;;7.80;2.50;;;-0.40;99.90;;;;;;2585175;54;20944;31
2022/01/21 16:59:17;;;;;;;5.80;2.45;;;-0.50;99.90;;;;;;2603845;46;20055;31
2022/01/21 17:01:52;;;;;;;9.90;1.80;;;-0.50;99.90;;;;;;2584512;54;20104;31
2022/01/21 17:04:30;;;;;;;;;;;-0.50;99.90;;;;;;2585489;54;20023;31
2022/01/21 17:07:08;;;;;;;5.05;1.65;;;-0.60;99.90;;;;;;2584628;54;20061;31
2022/01/21 17:12:19;;;;;;;8.52;1.65;;;-0.70;99.90;;;;;;2584362;54;20816;31
2022/01/21 17:14:53;;;;;;;9.20;2.10;;;-0.70;99.90;;;;;;2585655;54;20027;31
2022/01/21 17:17:30;;;;;;;10.52;3.03;;;-0.70;99.90;;;;;;2585105;54;20868;31
2022/01/21 17:20:06;;;;;;;8.45;2.60;;;-0.70;99.90;;;;;;2683515;39;22005;31
2022/01/21 17:22:43;;;;;;;6.40;1.90;;;-0.70;99.90;;;;;;2585456;54;20018;31
2022/01/21 17:25:16;;;;;;;5.97;1.38;;;-0.70;99.90;;;;;;2595517;46;20023;31
2022/01/21 17:27:51;;;;;;;8.40;2.20;;;-0.70;99.90;;;;;;2585093;54;20920;31
2022/01/21 17:32:59;;;;;;;6.07;2.45;;;-0.70;99.90;;;;;;2585202;54;20798;31
2022/01/21 17:38:18;;;;;;;5.25;1.45;;;-0.60;99.90;;;;;;2584877;54;20084;31
2022/01/21 17:40:54;;;;;;;6.68;2.00;;;-0.60;99.90;;;;;;2585078;54;20068;31
2022/01/21 17:43:32;;;;;;;10.80;1.93;;;-0.50;99.90;;;;;;2584462;54;20030;31
2022/01/21 17:46:05;;;;;;;10.80;2.40;;;-0.50;99.90;;;;;;2585066;54;20937;31
2022/01/21 17:48:40;;;;;;;14.15;3.10;;;-0.50;99.90;;;;;;2585127;54;20046;31
2022/01/21 17:51:16;;;;;;;22.10;5.35;;;-0.40;99.90;;;;;;2585040;54;20972;31
2022/01/21 17:53:57;;;;;;;;;;;-0.40;99.90;;;;;;2584450;54;20027;31
2022/01/21 17:56:31;;;;;;;14.57;4.35;;;-0.40;99.90;;;;;;2603446;46;19960;31
2022/01/21 17:59:09;;;;;;;15.88;4.95;;;-0.40;99.90;;;;;;2603866;46;20030;31
2022/01/21 18:01:44;;;;;;;15.65;3.95;;;-0.30;99.90;;;;;;2603193;46;20101;31
2022/01/21 18:04:17;;;;;;;16.40;5.15;;;-0.40;99.90;;;;;;2668273;39;22316;31
2022/01/21 18:07:17;;;;;;;18.45;5.15;;;-0.30;99.90;;;;;;2584201;54;20042;31
2022/01/21 18:10:04;;;;;;;10.90;3.65;;;-0.30;99.90;;;;;;2597772;47;19957;31
2022/01/21 18:12:42;;;;;;;14.30;4.73;;;-0.30;99.90;;;;;;2585333;54;19942;31
2022/01/21 18:15:16;;;;;;;11.75;3.90;;;-0.30;99.90;;;;;;2585078;54;20058;31
2022/01/21 18:17:52;;;;;;;14.70;3.75;;;-0.30;99.90;;;;;;2603309;47;21046;31
2022/01/21 18:20:30;;;;;;;12.00;2.60;;;-0.30;99.90;;;;;;2585084;54;20097;31
2022/01/21 18:23:06;;;;;;;10.03;3.67;;;-0.30;99.90;;;;;;2584773;54;20157;31
2022/01/21 18:25:53;;;;;;;11.13;3.55;;;-0.30;99.90;;;;;;2585187;54;20030;31
2022/01/21 18:28:30;;;;;;;6.65;2.53;;;-0.20;99.90;;;;;;2584882;54;20907;31
2022/01/21 18:31:07;;;;;;;8.95;2.90;;;-0.30;99.90;;;;;;2585253;54;20030;31
2022/01/21 18:33:43;;;;;;;12.30;3.05;;;-0.20;99.90;;;;;;2584877;54;20097;31
2022/01/21 18:36:18;;;;;;;7.50;2.57;;;-0.20;99.90;;;;;;2603568;47;20976;31
2022/01/21 18:38:51;;;;;;;8.97;2.83;;;-0.10;99.90;;;;;;2683058;39;21108;31
2022/01/21 18:41:38;;;;;;;11.35;2.50;;;-0.20;99.90;;;;;;2585166;54;20053;31
2022/01/21 18:44:13;;;;;;;7.03;2.17;;;-0.20;99.90;;;;;;2603331;47;20157;31
2022/01/21 18:46:49;;;;;;;7.35;2.20;;;-0.20;99.90;;;;;;2584852;54;20030;31
2022/01/21 18:49:29;;;;;;;12.75;2.67;;;-0.20;99.90;;;;;;2584929;54;20039;31
2022/01/21 18:52:08;;;;;;;9.10;2.17;;;-0.20;99.90;;;;;;2584766;54;20026;31
2022/01/21 18:54:44;;;;;;;6.88;2.30;;;-0.20;99.90;;;;;;2682488;39;20298;31
2022/01/21 18:57:25;;;;;;;6.78;2.20;;;-0.20;99.90;;;;;;2585099;54;21015;31
2022/01/21 18:59:59;;;;;;;5.95;2.25;;;-0.20;99.90;;;;;;2603091;47;20163;31
2022/01/21 19:02:36;;;;;;;10.70;2.00;;;-0.20;99.90;;;;;;2603346;47;20038;31
2022/01/21 19:05:16;;;;;;;6.47;1.90;;;-0.20;99.90;;;;;;2584784;54;20975;31
2022/01/21 19:07:54;;;;;;;4.63;1.67;;;-0.20;99.90;;;;;;2584973;54;20107;31
2022/01/21 19:10:33;;;;;;;7.15;1.95;;;-0.20;99.90;;;;;;2584779;54;20786;31
2022/01/21 19:13:12;;;;;;;6.75;2.10;;;-0.20;99.90;;;;;;2584087;54;20909;31
2022/01/21 19:15:50;;;;;;;8.23;2.05;;;-0.20;99.90;;;;;;2590076;47;21007;31
2022/01/21 19:18:24;;;;;;;8.10;1.80;;;-0.20;99.90;;;;;;2585361;54;20911;31
2022/01/21 19:20:57;;;;;;;4.63;1.50;;;-0.30;99.90;;;;;;2604028;46;21010;31
2022/01/21 19:23:33;;;;;;;5.40;1.90;;;-0.30;99.90;;;;;;2585829;54;20026;31
2022/01/21 19:26:26;;;;;;;6.15;2.05;;;-0.30;99.90;;;;;;2585650;54;20089;31
2022/01/21 19:29:05;;;;;;;7.22;1.63;;;-0.30;99.90;;;;;;2643639;39;20903;31
2022/01/21 19:31:38;;;;;;;9.38;2.30;;;-0.30;99.90;;;;;;2604043;46;22295;31
2022/01/21 19:34:26;;;;;;;6.55;1.85;;;-0.30;99.90;;;;;;2585774;54;22306;31
2022/01/21 19:37:04;;;;;;;7.85;2.15;;;-0.30;99.90;;;;;;2585550;54;20841;31
2022/01/21 19:39:37;;;;;;;10.00;2.25;;;-0.30;99.90;;;;;;2603609;46;20107;31
2022/01/21 19:42:15;;;;;;;5.15;2.03;;;-0.30;99.90;;;;;;2585587;54;20085;31
2022/01/21 19:44:59;;;;;;;8.20;1.70;;;-0.30;99.90;;;;;;2603838;46;20057;31
2022/01/21 19:50:06;;;;;;;7.50;2.00;;;-0.40;99.90;;;;;;2603972;46;20038;31
2022/01/21 19:52:41;;;;;;;5.25;1.70;;;-0.40;99.90;;;;;;2603970;46;20108;31
2022/01/21 19:55:15;;;;;;;4.17;1.47;;;-0.30;99.90;;;;;;2585482;54;20027;31
2022/01/21 19:58:02;;;;;;;6.30;1.70;;;-0.40;99.90;;;;;;2585675;54;20054;31
2022/01/21 20:01:06;;;;;;;6.78;1.83;;;-0.40;99.90;;;;;;2585586;54;20031;31
2022/01/21 20:09:27;;;;;;;11.65;2.00;;;-0.40;99.90;;;;;;2585796;54;20974;31
2022/01/21 20:12:11;;;;;;;6.25;1.90;;;-0.40;99.90;;;;;;2585422;54;20818;31
2022/01/21 20:14:51;;;;;;;6.40;2.20;;;-0.50;99.90;;;;;;2585184;54;21056;31
2022/01/21 20:17:40;;;;;;;11.38;2.08;;;-0.50;99.90;;;;;;2585347;54;21344;31
2022/01/21 20:20:17;;;;;;;5.05;2.00;;;-0.50;99.90;;;;;;2585173;54;20026;31
2022/01/21 20:22:54;;;;;;;7.32;2.58;;;-0.50;99.90;;;;;;2585499;54;20033;31
2022/01/21 20:25:36;;;;;;;5.60;1.80;;;-0.50;99.90;;;;;;2585385;54;20046;31
2022/01/21 20:28:12;;;;;;;8.73;2.00;;;-0.50;99.90;;;;;;2584538;54;20049;31
2022/01/21 20:30:48;;;;;;;13.00;4.50;;;-0.20;99.90;;;;;;2585253;54;20296;31
2022/01/21 20:33:24;;;;;;;12.70;3.80;;;-0.10;99.90;;;;;;2603646;46;20048;31
2022/01/21 20:36:08;;;;;;;13.27;3.30;;;0.00;99.90;;;;;;2585542;54;20967;31
2022/01/21 20:38:52;;;;;;;10.07;3.00;;;0.00;99.90;;;;;;2585250;54;20917;31
2022/01/21 20:41:36;;;;;;;7.03;2.73;;;-0.10;99.90;;;;;;2585230;54;20298;31
2022/01/21 20:44:10;;;;;;;7.05;2.10;;;-0.20;99.90;;;;;;2585320;54;21031;31
2022/01/21 20:46:45;;;;;;;9.15;2.17;;;-0.20;99.90;;;;;;2585436;54;20964;31
2022/01/21 20:49:22;;;;;;;6.38;2.03;;;-0.30;99.90;;;;;;2599556;39;20911;31
2022/01/21 20:51:56;;;;;;;4.95;1.55;;;-0.30;99.90;;;;;;2585047;54;20031;31
2022/01/21 20:54:31;;;;;;;5.80;1.70;;;-0.30;99.90;;;;;;2585251;54;20923;31
2022/01/21 20:57:07;;;;;;;6.35;1.70;;;-0.40;99.90;;;;;;2585668;54;20047;31
2022/01/21 20:59:43;;;;;;;4.45;1.63;;;-0.40;99.90;;;;;;2603797;46;20030;31
2022/01/21 21:02:18;;;;;;;7.43;1.95;;;-0.50;99.90;;;;;;2585354;54;20113;31
2022/01/21 21:05:02;;;;;;;5.95;1.10;;;-0.40;99.90;;;;;;2585300;54;20101;31
2022/01/21 21:07:36;;;;;;;9.57;2.17;;;-0.50;99.90;;;;;;2604078;46;20840;31
2022/01/21 21:10:20;;;;;;;6.50;2.97;;;-0.50;99.90;;;;;;2631010;31;21214;31
2022/01/21 21:12:55;;;;;;;5.53;1.67;;;-0.40;99.90;;;;;;2584997;54;20972;31
2022/01/21 21:15:33;;;;;;;11.48;2.03;;;-0.40;99.90;;;;;;2603681;46;20062;31
2022/01/21 21:18:29;;;;;;;11.10;1.55;;;-0.50;99.90;;;;;;2603856;46;22260;31
2022/01/21 21:23:58;;;;;;;6.75;1.75;;;-0.50;99.90;;;;;;2603569;46;20031;31
2022/01/21 21:24:10;;;;;;;5.65;1.40;;;-0.50;99.90;;;;;;2585279;54;19940;31
2022/01/21 21:26:47;;;;;;;10.55;2.30;;;-0.50;99.90;;;;;;2585419;54;20274;31
2022/01/21 21:29:29;;;;;;;8.13;1.92;;;-0.50;99.90;;;;;;2585181;54;20093;31
2022/01/21 21:42:15;;;;;;;8.63;1.97;;;-0.40;99.90;;;;;;2603745;46;20795;31
2022/01/21 22:49:36;;;;;;;10.00;2.30;;;-0.20;99.90;;;;;;2585189;54;20994;31
2022/01/21 23:00:38;;;;;;;8.98;2.35;;;-0.10;99.90;;;;;;2585862;54;20262;31
2022/01/21 23:03:19;;;;;;;9.45;2.75;;;0.00;99.90;;;;;;2584702;54;20030;31